Time;durP1;ratioP1;P1;durP2;ratioP2;P2;SDS_P1;SDS_P2;PMS_P1;PMS_P2;Temp;Humidity;BMP_temperature;BMP_pressure;BME280_temperature;BME280_humidity;BME280_pressure;Samples;Min_cycle;Max_cycle;Signal;HPM_P1;HPM_P2
2022/04/07 00:01:21;;;;;;;4.00;2.40;;;;;;;;;;6316491;28;20470;-75
2022/04/07 00:04:25;;;;;;;5.18;2.40;;;;;;;;;;6318589;28;20055;-72
2022/04/07 00:07:29;;;;;;;5.57;2.47;;;;;;;;;;6318356;28;20823;-75
2022/04/07 00:10:31;;;;;;;3.58;2.42;;;;;;;;;;6317965;28;20040;-75
2022/04/07 00:13:35;;;;;;;4.97;2.58;;;;;;;;;;6316671;28;20068;-74
2022/04/07 00:16:44;;;;;;;3.67;2.42;;;;;;;;;;6317507;28;20052;-75
2022/04/07 00:19:51;;;;;;;4.78;2.70;;;;;;;;;;6317630;28;20054;-75
2022/04/07 00:22:58;;;;;;;9.38;2.70;;;;;;;;;;6316093;28;20120;-74
2022/04/07 00:26:01;;;;;;;2.60;2.22;;;;;;;;;;6318151;28;20044;-75
2022/04/07 00:29:04;;;;;;;4.05;2.28;;;;;;;;;;6318248;28;20044;-75
2022/04/07 00:32:08;;;;;;;4.22;2.33;;;;;;;;;;6316094;28;20040;-74
2022/04/07 00:35:12;;;;;;;5.20;2.50;;;;;;;;;;6317418;28;20040;-75
2022/04/07 00:38:18;;;;;;;5.15;2.58;;;;;;;;;;6316741;28;20486;-75
2022/04/07 00:41:20;;;;;;;4.50;3.13;;;;;;;;;;6315959;28;20119;-75
2022/04/07 00:44:24;;;;;;;2.80;2.22;;;;;;;;;;6317053;28;20066;-75
2022/04/07 00:47:29;;;;;;;5.20;2.70;;;;;;;;;;6317730;28;20127;-74
2022/04/07 00:50:34;;;;;;;4.22;2.30;;;;;;;;;;6317340;28;20058;-75
2022/04/07 00:53:37;;;;;;;3.38;2.15;;;;;;;;;;6317140;28;20051;-74
2022/04/07 00:56:41;;;;;;;4.22;2.60;;;;;;;;;;6316688;28;20052;-74
2022/04/07 00:59:47;;;;;;;5.82;2.58;;;;;;;;;;6316257;28;20387;-73
2022/04/07 01:02:50;;;;;;;4.27;2.60;;;;;;;;;;6316950;28;20076;-74
2022/04/07 01:05:59;;;;;;;4.85;2.03;;;;;;;;;;6315626;28;20669;-75
2022/04/07 01:09:05;;;;;;;4.80;2.58;;;;;;;;;;6317756;28;20402;-74
2022/04/07 01:12:08;;;;;;;4.15;2.67;;;;;;;;;;6315989;28;20047;-75
2022/04/07 01:15:11;;;;;;;5.07;2.60;;;;;;;;;;6315348;28;20055;-74
2022/04/07 01:18:15;;;;;;;4.47;2.80;;;;;;;;;;6316973;28;20409;-74
2022/04/07 01:21:20;;;;;;;5.05;2.50;;;;;;;;;;6317255;28;20044;-74
2022/04/07 01:24:29;;;;;;;7.47;2.53;;;;;;;;;;6316608;28;20169;-74
2022/04/07 01:27:32;;;;;;;5.40;2.42;;;;;;;;;;6315240;28;20047;-74
2022/04/07 01:30:35;;;;;;;4.32;2.67;;;;;;;;;;6316044;28;20048;-74
2022/04/07 01:33:38;;;;;;;3.97;2.50;;;;;;;;;;6315361;28;20474;-74
2022/04/07 01:36:45;;;;;;;7.35;2.80;;;;;;;;;;6315418;28;20044;-74
2022/04/07 01:39:50;;;;;;;4.05;2.60;;;;;;;;;;6316572;28;20117;-74
2022/04/07 01:42:53;;;;;;;5.13;2.50;;;;;;;;;;6315786;28;20073;-74
2022/04/07 01:45:57;;;;;;;5.57;2.40;;;;;;;;;;6316453;28;20039;-74
2022/04/07 01:49:00;;;;;;;3.78;2.70;;;;;;;;;;6314660;28;20062;-74
2022/04/07 01:52:05;;;;;;;5.50;2.60;;;;;;;;;;6315698;28;20044;-74
2022/04/07 01:55:10;;;;;;;4.25;2.63;;;;;;;;;;6316341;28;20040;-74
2022/04/07 01:58:16;;;;;;;4.22;2.60;;;;;;;;;;6316413;28;20048;-74
2022/04/07 02:01:18;;;;;;;5.60;2.90;;;;;;;;;;6316704;28;20075;-73
2022/04/07 02:04:23;;;;;;;3.75;2.53;;;;;;;;;;6316693;28;20063;-73
2022/04/07 02:07:28;;;;;;;3.42;2.50;;;;;;;;;;6315376;28;20054;-73
2022/04/07 02:10:33;;;;;;;4.15;2.88;;;;;;;;;;6319556;28;20044;-73
2022/04/07 02:13:38;;;;;;;5.15;2.67;;;;;;;;;;6321595;28;20659;-73
2022/04/07 02:16:41;;;;;;;4.82;2.63;;;;;;;;;;6320700;28;20048;-73
2022/04/07 02:19:44;;;;;;;6.75;2.63;;;;;;;;;;6319193;28;20040;-74
2022/04/07 02:22:50;;;;;;;5.00;2.70;;;;;;;;;;6321496;28;20051;-73
2022/04/07 02:25:55;;;;;;;5.03;2.50;;;;;;;;;;6321075;28;20600;-74
2022/04/07 02:28:58;;;;;;;4.22;2.83;;;;;;;;;;6320523;28;20063;-73
2022/04/07 02:32:00;;;;;;;4.63;2.53;;;;;;;;;;6320588;28;20127;-74
2022/04/07 02:35:04;;;;;;;4.18;2.65;;;;;;;;;;6321226;28;20044;-74
2022/04/07 02:38:07;;;;;;;4.55;2.70;;;;;;;;;;6319195;28;20504;-73
2022/04/07 02:41:14;;;;;;;4.45;2.22;;;;;;;;;;6320087;28;20040;-73
2022/04/07 02:44:18;;;;;;;8.43;2.70;;;;;;;;;;6321146;28;20516;-74
2022/04/07 02:47:21;;;;;;;8.55;2.95;;;;;;;;;;6318956;28;20544;-74
2022/04/07 02:50:23;;;;;;;5.93;2.88;;;;;;;;;;6318368;28;20052;-73
2022/04/07 02:53:26;;;;;;;4.10;2.40;;;;;;;;;;6318728;28;20051;-74
2022/04/07 02:56:31;;;;;;;7.03;2.70;;;;;;;;;;6320262;28;20039;-74
2022/04/07 02:59:34;;;;;;;3.38;2.50;;;;;;;;;;6318292;28;20044;-73
2022/04/07 03:02:37;;;;;;;4.22;2.78;;;;;;;;;;6319757;28;20063;-75
2022/04/07 03:05:40;;;;;;;5.47;2.75;;;;;;;;;;6320287;28;20052;-74
2022/04/07 03:08:43;;;;;;;6.05;2.75;;;;;;;;;;6319680;28;20044;-74
2022/04/07 03:11:47;;;;;;;6.90;3.17;;;;;;;;;;6319967;28;20055;-73
2022/04/07 03:14:51;;;;;;;8.97;3.17;;;;;;;;;;6318436;28;20306;-73
2022/04/07 03:17:54;;;;;;;6.30;2.83;;;;;;;;;;6319635;28;20281;-72
2022/04/07 03:20:56;;;;;;;3.45;2.45;;;;;;;;;;6317052;28;20044;-74
2022/04/07 03:23:59;;;;;;;3.75;2.88;;;;;;;;;;6317819;28;20051;-74
2022/04/07 03:27:07;;;;;;;7.25;3.33;;;;;;;;;;6319886;28;20040;-74
2022/04/07 03:30:11;;;;;;;6.63;2.90;;;;;;;;;;6317770;28;20459;-74
2022/04/07 03:33:13;;;;;;;4.32;2.80;;;;;;;;;;6317247;28;20078;-73
2022/04/07 03:36:19;;;;;;;5.75;2.55;;;;;;;;;;6319456;28;20197;-74
2022/04/07 03:39:22;;;;;;;4.85;2.65;;;;;;;;;;6318949;28;20122;-73
2022/04/07 03:42:26;;;;;;;6.13;3.03;;;;;;;;;;6318651;28;20044;-73
2022/04/07 03:45:29;;;;;;;6.15;3.03;;;;;;;;;;6318633;28;20054;-75
2022/04/07 03:48:32;;;;;;;6.03;3.08;;;;;;;;;;6319025;28;20059;-74
2022/04/07 03:51:37;;;;;;;5.32;2.75;;;;;;;;;;6318506;28;20056;-75
2022/04/07 03:54:48;;;;;;;6.03;2.95;;;;;;;;;;6316638;28;20039;-73
2022/04/07 03:57:53;;;;;;;8.07;3.17;;;;;;;;;;6317414;28;20050;-75
2022/04/07 04:00:56;;;;;;;12.77;3.47;;;;;;;;;;6318261;28;20071;-74
2022/04/07 04:03:58;;;;;;;7.65;3.28;;;;;;;;;;6317858;28;20150;-74
2022/04/07 04:07:01;;;;;;;5.55;3.70;;;;;;;;;;6316668;28;20044;-74
2022/04/07 04:10:04;;;;;;;7.65;3.65;;;;;;;;;;6317472;28;20044;-74
2022/04/07 04:13:09;;;;;;;6.30;3.45;;;;;;;;;;6317295;28;20055;-75
2022/04/07 04:16:14;;;;;;;5.80;3.40;;;;;;;;;;6317503;28;20130;-74
2022/04/07 04:19:21;;;;;;;8.63;3.13;;;;;;;;;;6318359;28;20534;-74
2022/04/07 04:22:26;;;;;;;6.50;3.45;;;;;;;;;;6318168;28;20119;-74
2022/04/07 04:25:29;;;;;;;7.57;3.70;;;;;;;;;;6316367;28;20048;-74
2022/04/07 04:28:35;;;;;;;7.78;3.60;;;;;;;;;;6315867;28;20040;-74
2022/04/07 04:31:38;;;;;;;6.88;3.65;;;;;;;;;;6318216;28;20086;-74
2022/04/07 04:34:41;;;;;;;9.00;3.70;;;;;;;;;;6316257;28;20050;-74
2022/04/07 04:37:44;;;;;;;6.38;3.78;;;;;;;;;;6316780;28;20043;-74
2022/04/07 04:40:50;;;;;;;9.75;3.88;;;;;;;;;;6314074;28;20040;-74
2022/04/07 04:43:54;;;;;;;6.72;4.07;;;;;;;;;;6314819;28;20044;-73
2022/04/07 04:46:57;;;;;;;7.72;3.30;;;;;;;;;;6312534;28;20040;-72
2022/04/07 04:50:03;;;;;;;6.97;3.67;;;;;;;;;;6314984;28;20048;-74
2022/04/07 04:53:06;;;;;;;4.70;3.45;;;;;;;;;;6314421;28;20122;-74
2022/04/07 04:56:09;;;;;;;7.13;4.07;;;;;;;;;;6317069;28;20048;-74
2022/04/07 04:59:14;;;;;;;7.05;3.75;;;;;;;;;;6315401;28;20048;-75
2022/04/07 05:02:19;;;;;;;7.95;4.07;;;;;;;;;;6316109;28;20044;-74
2022/04/07 05:05:24;;;;;;;10.73;4.50;;;;;;;;;;6315721;28;20064;-74
2022/04/07 05:08:27;;;;;;;8.65;4.30;;;;;;;;;;6316368;28;20166;-74
2022/04/07 05:11:30;;;;;;;7.72;3.92;;;;;;;;;;6316005;28;20047;-75
2022/04/07 05:14:37;;;;;;;10.27;4.13;;;;;;;;;;6315769;28;20055;-74
2022/04/07 05:17:40;;;;;;;13.95;4.97;;;;;;;;;;6315275;28;20044;-74
2022/04/07 05:20:43;;;;;;;12.02;4.53;;;;;;;;;;6316443;28;20040;-74
2022/04/07 05:23:45;;;;;;;11.75;4.90;;;;;;;;;;6316964;28;20397;-74
2022/04/07 05:26:49;;;;;;;12.82;5.45;;;;;;;;;;6298558;28;20113;-74
2022/04/07 05:29:55;;;;;;;14.45;6.80;;;;;;;;;;6316274;28;20044;-74
2022/04/07 05:32:58;;;;;;;12.88;5.93;;;;;;;;;;6317002;28;20048;-73
2022/04/07 05:36:01;;;;;;;9.38;4.60;;;;;;;;;;6316638;28;20409;-75
2022/04/07 05:39:05;;;;;;;8.18;4.18;;;;;;;;;;6316249;28;20044;-73
2022/04/07 05:42:08;;;;;;;10.55;4.97;;;;;;;;;;6316586;28;20044;-74
2022/04/07 05:45:12;;;;;;;13.05;6.05;;;;;;;;;;6321439;28;20047;-75
2022/04/07 05:48:17;;;;;;;10.48;5.00;;;;;;;;;;6319823;28;20052;-74
2022/04/07 05:51:20;;;;;;;13.10;4.75;;;;;;;;;;6319446;28;20074;-75
2022/04/07 05:54:23;;;;;;;11.55;5.10;;;;;;;;;;6321551;28;20127;-75
2022/04/07 05:57:27;;;;;;;12.00;4.60;;;;;;;;;;6320873;28;20055;-74
2022/04/07 06:00:31;;;;;;;9.80;4.38;;;;;;;;;;6319123;28;20070;-74
2022/04/07 06:03:36;;;;;;;11.63;5.47;;;;;;;;;;6320262;28;20044;-73
2022/04/07 06:06:39;;;;;;;11.35;4.40;;;;;;;;;;6320832;28;20047;-74
2022/04/07 06:09:42;;;;;;;11.75;4.53;;;;;;;;;;6321022;28;20066;-73
2022/04/07 06:12:46;;;;;;;10.82;4.38;;;;;;;;;;6319174;28;20050;-74
2022/04/07 06:15:50;;;;;;;11.60;5.07;;;;;;;;;;6321080;28;20063;-74
2022/04/07 06:18:56;;;;;;;11.05;4.88;;;;;;;;;;6319516;28;20048;-74
2022/04/07 06:21:59;;;;;;;8.70;4.75;;;;;;;;;;6318722;28;20055;-73
2022/04/07 06:25:01;;;;;;;13.93;4.63;;;;;;;;;;6320777;28;20044;-74
2022/04/07 06:28:07;;;;;;;11.55;5.00;;;;;;;;;;6320814;28;20059;-74
2022/04/07 06:31:14;;;;;;;9.73;4.57;;;;;;;;;;6320126;28;20181;-74
2022/04/07 06:34:17;;;;;;;10.68;5.03;;;;;;;;;;6320600;28;20105;-74
2022/04/07 06:37:22;;;;;;;12.27;5.25;;;;;;;;;;6319344;28;20047;-74
2022/04/07 06:40:28;;;;;;;7.78;4.45;;;;;;;;;;6320097;28;20044;-74
2022/04/07 06:43:31;;;;;;;11.00;4.35;;;;;;;;;;6318071;28;20044;-74
2022/04/07 06:46:37;;;;;;;12.48;5.40;;;;;;;;;;6320474;28;20052;-73
2022/04/07 06:49:40;;;;;;;11.23;5.00;;;;;;;;;;6319994;28;20509;-75
2022/04/07 06:52:44;;;;;;;9.05;5.60;;;;;;;;;;6319651;28;20040;-74
2022/04/07 06:55:47;;;;;;;16.40;5.28;;;;;;;;;;6318600;28;20046;-74
2022/04/07 06:58:50;;;;;;;17.17;5.15;;;;;;;;;;6320248;28;20486;-74
2022/04/07 07:01:57;;;;;;;10.13;5.30;;;;;;;;;;6319874;28;20048;-74
2022/04/07 07:05:00;;;;;;;9.40;4.53;;;;;;;;;;6317875;28;20047;-74
2022/04/07 07:08:10;;;;;;;10.52;5.03;;;;;;;;;;6320184;28;20035;-74
2022/04/07 07:11:16;;;;;;;9.32;4.78;;;;;;;;;;6320079;28;20081;-73
2022/04/07 07:14:19;;;;;;;10.10;4.63;;;;;;;;;;6317770;28;20406;-75
2022/04/07 07:17:23;;;;;;;9.07;5.00;;;;;;;;;;6319679;28;20052;-74
2022/04/07 07:20:26;;;;;;;13.18;5.85;;;;;;;;;;6319720;28;20040;-74
2022/04/07 07:23:29;;;;;;;9.90;4.97;;;;;;;;;;6318874;28;20051;-73
2022/04/07 07:26:32;;;;;;;10.20;4.78;;;;;;;;;;6317184;28;20040;-74
2022/04/07 07:29:34;;;;;;;11.65;5.43;;;;;;;;;;6319354;28;20044;-73
2022/04/07 07:32:39;;;;;;;9.38;4.97;;;;;;;;;;6318781;28;20044;-74
2022/04/07 07:35:45;;;;;;;8.63;5.13;;;;;;;;;;6318520;28;20383;-74
2022/04/07 07:38:51;;;;;;;9.45;5.45;;;;;;;;;;6317852;28;20036;-74
2022/04/07 07:41:54;;;;;;;9.25;5.57;;;;;;;;;;6317839;28;20044;-73
2022/04/07 07:44:57;;;;;;;9.95;4.85;;;;;;;;;;6317196;28;20044;-74
2022/04/07 07:48:01;;;;;;;7.15;4.75;;;;;;;;;;6316911;28;20052;-74
2022/04/07 07:51:04;;;;;;;10.40;4.82;;;;;;;;;;6319215;28;20047;-74
2022/04/07 07:54:07;;;;;;;6.72;4.28;;;;;;;;;;6316680;28;20048;-73
2022/04/07 07:57:10;;;;;;;6.70;4.15;;;;;;;;;;6317743;28;20523;-75
2022/04/07 08:00:16;;;;;;;;;;;;;;;;;;6318283;28;20042;-74
2022/04/07 08:03:21;;;;;;;7.50;4.90;;;;;;;;;;6318509;28;20389;-74
2022/04/07 08:06:24;;;;;;;9.25;5.38;;;;;;;;;;6317793;28;20052;-74
2022/04/07 08:09:26;;;;;;;241.52;162.52;;;;;;;;;;6317880;28;20046;-74
2022/04/07 08:12:29;;;;;;;12.70;7.78;;;;;;;;;;6317176;28;20405;-74
2022/04/07 08:15:34;;;;;;;12.10;5.05;;;;;;;;;;6317786;28;20048;-74
2022/04/07 08:18:39;;;;;;;22.52;10.88;;;;;;;;;;6317457;28;20055;-74
2022/04/07 08:21:42;;;;;;;11.02;4.88;;;;;;;;;;6318392;28;20044;-73
2022/04/07 08:24:45;;;;;;;10.00;4.95;;;;;;;;;;6317808;28;20406;-74
2022/04/07 08:27:50;;;;;;;;;;;;;;;;;;6316710;28;20052;-73
2022/04/07 08:30:53;;;;;;;9.38;5.10;;;;;;;;;;6316971;28;19927;-72
2022/04/07 08:34:00;;;;;;;9.73;5.30;;;;;;;;;;6316803;28;20067;-73
2022/04/07 08:37:03;;;;;;;6.38;5.03;;;;;;;;;;6316260;28;20490;-73
2022/04/07 08:40:07;;;;;;;9.32;6.18;;;;;;;;;;6316930;28;20433;-73
2022/04/07 08:43:13;;;;;;;12.85;6.07;;;;;;;;;;6316424;28;20048;-71
2022/04/07 08:46:16;;;;;;;7.72;4.70;;;;;;;;;;6316399;28;20040;-74
2022/04/07 08:49:21;;;;;;;11.13;6.05;;;;;;;;;;6316926;28;20060;-74
2022/04/07 08:52:27;;;;;;;12.48;5.75;;;;;;;;;;6317448;28;20044;-74
2022/04/07 08:55:30;;;;;;;149.63;87.43;;;;;;;;;;6316332;28;20264;-74
2022/04/07 08:58:33;;;;;;;9.35;5.88;;;;;;;;;;6317007;28;20040;-73
2022/04/07 09:01:36;;;;;;;10.10;5.80;;;;;;;;;;6315438;28;20040;-74
2022/04/07 09:04:40;;;;;;;11.15;6.38;;;;;;;;;;6316330;28;20055;-73
2022/04/07 09:07:46;;;;;;;19.00;5.90;;;;;;;;;;6317080;28;20044;-72
2022/04/07 09:10:53;;;;;;;11.63;5.13;;;;;;;;;;6316428;28;20116;-73
2022/04/07 09:13:57;;;;;;;9.38;5.60;;;;;;;;;;6315633;28;20044;-73
2022/04/07 09:17:00;;;;;;;10.45;4.88;;;;;;;;;;6314471;28;20044;-73
2022/04/07 09:20:10;;;;;;;11.75;5.60;;;;;;;;;;6316409;28;20769;-72
2022/04/07 09:23:13;;;;;;;9.45;5.60;;;;;;;;;;6316229;28;20036;-73
2022/04/07 09:26:17;;;;;;;9.65;5.80;;;;;;;;;;6317196;28;20509;-73
2022/04/07 09:29:20;;;;;;;14.05;5.72;;;;;;;;;;6315274;28;20052;-73
2022/04/07 09:32:26;;;;;;;10.02;5.88;;;;;;;;;;6316254;28;20394;-73
2022/04/07 09:35:30;;;;;;;9.65;5.65;;;;;;;;;;6315784;28;20043;-72
2022/04/07 09:38:34;;;;;;;9.63;5.10;;;;;;;;;;6316939;28;20410;-73
2022/04/07 09:41:37;;;;;;;11.77;5.00;;;;;;;;;;6314982;28;20050;-74
2022/04/07 09:44:40;;;;;;;7.80;4.70;;;;;;;;;;6316803;28;20047;-74
2022/04/07 09:47:44;;;;;;;11.02;5.20;;;;;;;;;;6315511;28;20044;-73
2022/04/07 09:51:02;;;;;;;9.00;4.88;;;;;;;;;;6316136;28;20395;-72
2022/04/07 09:54:09;;;;;;;10.23;5.13;;;;;;;;;;6313761;28;20498;-74
2022/04/07 09:57:14;;;;;;;8.73;5.20;;;;;;;;;;6317161;28;20044;-74
2022/04/07 10:00:20;;;;;;;9.95;5.13;;;;;;;;;;6316504;28;20525;-74
2022/04/07 10:03:23;;;;;;;9.27;5.40;;;;;;;;;;6315998;28;20383;-73
2022/04/07 10:06:27;;;;;;;15.95;5.95;;;;;;;;;;6316980;28;20055;-73
2022/04/07 10:09:33;;;;;;;11.93;5.82;;;;;;;;;;6316572;28;20055;-73
2022/04/07 10:12:36;;;;;;;11.80;5.18;;;;;;;;;;6316066;28;20375;-73
2022/04/07 10:15:39;;;;;;;11.57;6.72;;;;;;;;;;6316475;28;20040;-74
2022/04/07 10:18:45;;;;;;;12.77;6.60;;;;;;;;;;6317188;28;20177;-73
2022/04/07 10:21:55;;;;;;;15.52;8.88;;;;;;;;;;6316042;28;20040;-73
2022/04/07 10:25:02;;;;;;;18.35;10.60;;;;;;;;;;6314043;28;20082;-73
2022/04/07 10:28:08;;;;;;;14.63;6.03;;;;;;;;;;6316590;28;20410;-73
2022/04/07 10:31:15;;;;;;;9.18;5.57;;;;;;;;;;6320322;28;20048;-74
2022/04/07 10:34:31;;;;;;;12.40;6.57;;;;;;;;;;6320041;28;20055;-72
2022/04/07 10:37:42;;;;;;;9.18;5.35;;;;;;;;;;6320001;28;20040;-73
2022/04/07 10:40:50;;;;;;;10.85;6.03;;;;;;;;;;6320792;28;20126;-73
2022/04/07 10:44:07;;;;;;;8.25;5.55;;;;;;;;;;6319693;28;20051;-73
2022/04/07 10:47:11;;;;;;;11.90;4.65;;;;;;;;;;6319472;28;20044;-72
2022/04/07 10:50:18;;;;;;;10.07;4.50;;;;;;;;;;6320497;28;20048;-74
2022/04/07 10:53:28;;;;;;;10.50;5.10;;;;;;;;;;6318128;28;20044;-74
2022/04/07 10:56:35;;;;;;;12.05;4.70;;;;;;;;;;6317765;28;20418;-73
2022/04/07 10:59:41;;;;;;;7.90;4.57;;;;;;;;;;6319690;28;20044;-72
2022/04/07 11:02:44;;;;;;;9.63;4.40;;;;;;;;;;6319960;28;20044;-72
2022/04/07 11:05:54;;;;;;;8.43;4.32;;;;;;;;;;6319524;28;20405;-73
2022/04/07 11:09:12;;;;;;;6.47;3.97;;;;;;;;;;6319736;28;20105;-73
2022/04/07 11:12:20;;;;;;;10.65;4.22;;;;;;;;;;6319947;28;20052;-73
2022/04/07 11:15:30;;;;;;;9.80;4.35;;;;;;;;;;6319643;28;20478;-73
2022/04/07 11:18:49;;;;;;;6.95;4.03;;;;;;;;;;6318852;28;20074;-72
2022/04/07 11:22:06;;;;;;;6.90;4.03;;;;;;;;;;6318156;28;20488;-73
2022/04/07 11:25:13;;;;;;;6.00;3.88;;;;;;;;;;6319803;28;20051;-73
2022/04/07 11:28:18;;;;;;;9.73;4.82;;;;;;;;;;6319345;28;20486;-73
2022/04/07 11:31:36;;;;;;;9.65;4.90;;;;;;;;;;6318397;28;20040;-73
2022/04/07 11:34:52;;;;;;;8.63;4.60;;;;;;;;;;6317285;28;20051;-72
2022/04/07 11:37:55;;;;;;;8.38;4.82;;;;;;;;;;6318795;28;20047;-73
2022/04/07 11:40:59;;;;;;;7.10;5.15;;;;;;;;;;6317812;28;20048;-73
2022/04/07 11:44:09;;;;;;;10.80;5.70;;;;;;;;;;6316813;28;20421;-74
2022/04/07 11:47:23;;;;;;;9.60;5.60;;;;;;;;;;6319337;28;20044;-73
2022/04/07 11:50:26;;;;;;;7.40;4.47;;;;;;;;;;6318514;28;20055;-72
2022/04/07 11:53:29;;;;;;;9.52;5.78;;;;;;;;;;6318084;28;20044;-73
2022/04/07 11:56:38;;;;;;;12.93;5.20;;;;;;;;;;6319174;28;20051;-73
2022/04/07 11:59:44;;;;;;;10.75;4.97;;;;;;;;;;6319161;28;20055;-72
2022/04/07 12:02:57;;;;;;;7.65;4.68;;;;;;;;;;6317878;28;20055;-73
2022/04/07 12:06:01;;;;;;;11.52;4.93;;;;;;;;;;6317579;28;20043;-73
2022/04/07 12:09:05;;;;;;;12.80;4.78;;;;;;;;;;6318452;28;20058;-73
2022/04/07 12:12:08;;;;;;;8.80;5.25;;;;;;;;;;6318174;28;20040;-73
2022/04/07 12:15:14;;;;;;;7.88;4.55;;;;;;;;;;6317577;28;20094;-73
2022/04/07 12:18:24;;;;;;;11.07;4.75;;;;;;;;;;6318146;28;20126;-72
2022/04/07 12:21:28;;;;;;;11.45;5.68;;;;;;;;;;6318652;28;20040;-73
2022/04/07 12:24:33;;;;;;;9.27;5.20;;;;;;;;;;6316389;28;20409;-72
2022/04/07 12:27:36;;;;;;;12.70;5.00;;;;;;;;;;6317001;28;20085;-74
2022/04/07 12:30:44;;;;;;;11.45;5.35;;;;;;;;;;6317865;28;20483;-72
2022/04/07 12:33:48;;;;;;;12.23;5.43;;;;;;;;;;6316235;28;20044;-73
2022/04/07 12:36:51;;;;;;;8.52;5.22;;;;;;;;;;6317684;28;20040;-72
2022/04/07 12:40:00;;;;;;;9.30;5.22;;;;;;;;;;6315958;28;20063;-72
2022/04/07 12:43:03;;;;;;;9.07;4.22;;;;;;;;;;6317297;28;20040;-72
2022/04/07 12:46:08;;;;;;;7.10;4.90;;;;;;;;;;6317355;28;20048;-73
2022/04/07 12:49:12;;;;;;;12.13;4.65;;;;;;;;;;6316412;28;20414;-75
2022/04/07 12:52:16;;;;;;;15.48;4.80;;;;;;;;;;6316834;28;20055;-73
2022/04/07 12:55:19;;;;;;;7.77;4.30;;;;;;;;;;6317027;28;20051;-72
2022/04/07 12:58:27;;;;;;;6.63;4.57;;;;;;;;;;6315193;28;20288;-73
2022/04/07 13:01:31;;;;;;;7.07;4.65;;;;;;;;;;6317177;28;20044;-73
2022/04/07 13:04:47;;;;;;;9.13;4.25;;;;;;;;;;6317394;28;20536;-72
2022/04/07 13:07:49;;;;;;;19.67;11.75;;;;;;;;;;6315534;28;20051;-73
2022/04/07 13:10:53;;;;;;;7.07;4.50;;;;;;;;;;6316341;28;20044;-73
2022/04/07 13:13:55;;;;;;;13.35;4.20;;;;;;;;;;6317562;28;20541;-73
2022/04/07 13:17:00;;;;;;;5.95;3.63;;;;;;;;;;6316340;28;20097;-73
2022/04/07 13:20:04;;;;;;;7.75;3.95;;;;;;;;;;6314568;28;20048;-73
2022/04/07 13:23:11;;;;;;;6.70;4.20;;;;;;;;;;6315198;28;20048;-73
2022/04/07 13:26:14;;;;;;;20.50;14.50;;;;;;;;;;6315336;28;20058;-73
2022/04/07 13:29:18;;;;;;;8.27;5.65;;;;;;;;;;6315885;28;20292;-72
2022/04/07 13:32:24;;;;;;;8.63;3.97;;;;;;;;;;6314528;28;20046;-73
2022/04/07 13:35:27;;;;;;;7.28;3.75;;;;;;;;;;6315521;28;20168;-74
2022/04/07 13:38:32;;;;;;;5.63;3.35;;;;;;;;;;6316349;28;20492;-73
2022/04/07 13:41:36;;;;;;;5.20;3.80;;;;;;;;;;6314552;28;20437;-73
2022/04/07 13:44:39;;;;;;;8.20;4.07;;;;;;;;;;6316459;28;20051;-74
2022/04/07 13:47:43;;;;;;;6.78;4.38;;;;;;;;;;6316895;28;20044;-73
2022/04/07 13:50:46;;;;;;;7.18;4.30;;;;;;;;;;6314520;28;20056;-73
2022/04/07 13:53:49;;;;;;;6.75;3.40;;;;;;;;;;6315602;28;20048;-74
2022/04/07 13:56:55;;;;;;;7.95;3.58;;;;;;;;;;6315743;28;20056;-72
2022/04/07 13:59:58;;;;;;;10.88;4.70;;;;;;;;;;6316193;28;20044;-73
2022/04/07 14:03:02;;;;;;;9.63;6.03;;;;;;;;;;6315635;28;20048;-73
2022/04/07 14:06:05;;;;;;;;;;;;;;;;;;6320515;28;20048;-73
2022/04/07 14:09:12;;;;;;;7.35;4.10;;;;;;;;;;6319769;28;19981;-74
2022/04/07 14:12:17;;;;;;;5.60;4.45;;;;;;;;;;6320515;28;20093;-74
2022/04/07 14:15:20;;;;;;;6.72;4.40;;;;;;;;;;6320499;28;20054;-74
2022/04/07 14:18:24;;;;;;;10.60;4.07;;;;;;;;;;6321093;28;20044;-75
2022/04/07 14:21:27;;;;;;;5.40;3.53;;;;;;;;;;6320603;28;20051;-75
2022/04/07 14:24:30;;;;;;;8.32;4.03;;;;;;;;;;6319671;28;20291;-74
2022/04/07 14:27:33;;;;;;;13.15;4.05;;;;;;;;;;6320496;28;20055;-74
2022/04/07 14:30:39;;;;;;;6.50;3.88;;;;;;;;;;6320479;28;20040;-75
2022/04/07 14:33:44;;;;;;;15.35;4.20;;;;;;;;;;6320013;28;20058;-75
2022/04/07 14:36:47;;;;;;;9.02;3.95;;;;;;;;;;6318903;28;20101;-74
2022/04/07 14:39:50;;;;;;;15.00;4.35;;;;;;;;;;6320986;28;20043;-75
2022/04/07 14:42:56;;;;;;;8.32;4.20;;;;;;;;;;6318703;28;20387;-76
2022/04/07 14:46:01;;;;;;;237.13;157.38;;;;;;;;;;6319434;28;20411;-75
2022/04/07 14:49:06;;;;;;;11.30;4.88;;;;;;;;;;6318857;28;20051;-77
2022/04/07 14:52:25;;;;;;;8.48;4.07;;;;;;;;;;6317549;28;20051;-75
2022/04/07 14:55:28;;;;;;;12.48;4.03;;;;;;;;;;6318934;28;20471;-75
2022/04/07 14:58:31;;;;;;;6.47;3.60;;;;;;;;;;6319716;28;20176;-76
2022/04/07 15:01:37;;;;;;;8.57;3.78;;;;;;;;;;6320200;28;20117;-75
2022/04/07 15:04:41;;;;;;;9.35;3.95;;;;;;;;;;6319272;28;20047;-75
2022/04/07 15:07:45;;;;;;;6.53;3.33;;;;;;;;;;6319283;28;20040;-75
2022/04/07 15:10:55;;;;;;;6.75;3.83;;;;;;;;;;6318733;28;20044;-74
2022/04/07 15:13:58;;;;;;;;;;;;;;;;;;6318592;28;20482;-74
2022/04/07 15:17:01;;;;;;;14.63;4.45;;;;;;;;;;6317745;28;20261;-75
2022/04/07 15:20:07;;;;;;;7.93;3.42;;;;;;;;;;6319396;28;20050;-78
2022/04/07 15:23:10;;;;;;;6.43;3.70;;;;;;;;;;6319655;28;20044;-75
2022/04/07 15:26:13;;;;;;;6.18;3.80;;;;;;;;;;6318729;28;20044;-75
2022/04/07 15:29:16;;;;;;;8.65;3.47;;;;;;;;;;6317036;28;20433;-75
2022/04/07 15:32:23;;;;;;;10.38;3.67;;;;;;;;;;6318804;28;20048;-76
2022/04/07 15:35:29;;;;;;;8.88;3.92;;;;;;;;;;6317449;28;20059;-75
2022/04/07 15:38:32;;;;;;;6.20;3.55;;;;;;;;;;6316740;28;20710;-76
2022/04/07 15:41:36;;;;;;;6.07;3.30;;;;;;;;;;6316321;28;20051;-76
2022/04/07 15:44:39;;;;;;;4.38;3.38;;;;;;;;;;6315962;28;20392;-78
2022/04/07 15:47:42;;;;;;;6.70;3.30;;;;;;;;;;6313921;28;20051;-77
2022/04/07 15:50:48;;;;;;;3.13;1.77;;;;;;;;;;6313779;28;20056;-77
2022/04/07 15:53:51;;;;;;;1.17;1.00;;;;;;;;;;6314560;28;20048;-76
2022/04/07 15:56:57;;;;;;;2.95;0.95;;;;;;;;;;6315178;28;20044;-75
2022/04/07 16:00:01;;;;;;;2.38;1.20;;;;;;;;;;6317462;28;20537;-76
2022/04/07 16:03:06;;;;;;;1.58;1.10;;;;;;;;;;6318574;28;20048;-76
2022/04/07 16:06:11;;;;;;;1.08;0.70;;;;;;;;;;6316682;28;20040;-77
2022/04/07 16:09:14;;;;;;;1.15;0.80;;;;;;;;;;6317663;28;20478;-77
2022/04/07 16:12:17;;;;;;;2.97;0.98;;;;;;;;;;6317730;28;20059;-76
2022/04/07 16:15:20;;;;;;;0.52;0.45;;;;;;;;;;6318611;28;20044;-77
2022/04/07 16:18:24;;;;;;;1.17;0.95;;;;;;;;;;6316571;28;20117;-76
2022/04/07 16:21:30;;;;;;;1.02;0.70;;;;;;;;;;6316785;28;20067;-75
2022/04/07 16:24:33;;;;;;;0.82;0.55;;;;;;;;;;6315102;28;20047;-77
2022/04/07 16:27:36;;;;;;;1.80;1.02;;;;;;;;;;6316206;28;20052;-75
2022/04/07 16:30:41;;;;;;;1.65;0.90;;;;;;;;;;6313924;28;20036;-76
2022/04/07 16:33:47;;;;;;;0.65;0.50;;;;;;;;;;6314962;28;20048;-77
2022/04/07 16:36:53;;;;;;;5.40;1.60;;;;;;;;;;6313724;28;20449;-76
2022/04/07 16:39:56;;;;;;;3.63;1.45;;;;;;;;;;6315009;28;20040;-76
2022/04/07 16:42:59;;;;;;;4.68;1.38;;;;;;;;;;6313870;28;20064;-76
2022/04/07 16:46:03;;;;;;;9.07;1.70;;;;;;;;;;6315387;28;20433;-76
2022/04/07 16:49:06;;;;;;;7.35;2.13;;;;;;;;;;6316926;28;20056;-77
2022/04/07 16:52:11;;;;;;;9.43;1.70;;;;;;;;;;6316535;28;20051;-76
2022/04/07 16:55:14;;;;;;;12.37;2.50;;;;;;;;;;6317592;28;20085;-77
2022/04/07 16:58:18;;;;;;;13.43;3.90;;;;;;;;;;6315332;28;20487;-77
2022/04/07 17:01:23;;;;;;;7.03;1.88;;;;;;;;;;6315328;28;20059;-76
2022/04/07 17:04:26;;;;;;;3.70;1.83;;;;;;;;;;6315800;28;20189;-76
2022/04/07 17:07:31;;;;;;;;;;;;;;;;;;6317955;28;20054;-77
2022/04/07 17:10:38;;;;;;;4.93;2.30;;;;;;;;;;6315469;28;19928;-76
2022/04/07 17:13:41;;;;;;;3.28;2.03;;;;;;;;;;6315087;28;20135;-76
2022/04/07 17:16:44;;;;;;;6.45;1.90;;;;;;;;;;6317113;28;20047;-77
2022/04/07 17:19:51;;;;;;;7.25;1.83;;;;;;;;;;6315888;28;20055;-76
2022/04/07 17:22:57;;;;;;;8.40;1.70;;;;;;;;;;6316593;28;20506;-76
2022/04/07 17:26:01;;;;;;;4.15;1.70;;;;;;;;;;6316343;28;20054;-76
2022/04/07 17:29:05;;;;;;;9.77;2.17;;;;;;;;;;6298991;28;20048;-76
2022/04/07 17:32:08;;;;;;;9.18;1.90;;;;;;;;;;6315492;28;20090;-76
2022/04/07 17:35:12;;;;;;;6.25;1.60;;;;;;;;;;6315118;28;20052;-76
2022/04/07 17:38:15;;;;;;;7.07;2.05;;;;;;;;;;6317469;28;20186;-79
2022/04/07 17:41:20;;;;;;;13.48;2.97;;;;;;;;;;6321478;28;20047;-81
2022/04/07 17:44:22;;;;;;;7.77;2.40;;;;;;;;;;6320869;28;20046;-81
2022/04/07 17:47:26;;;;;;;9.73;1.85;;;;;;;;;;6319881;28;20551;-79
2022/04/07 17:50:29;;;;;;;15.80;2.67;;;;;;;;;;6320040;28;20056;-81
2022/04/07 17:53:32;;;;;;;7.75;2.60;;;;;;;;;;6317868;28;20040;-80
2022/04/07 17:56:37;;;;;;;6.90;3.25;;;;;;;;;;6318824;28;20406;-81
2022/04/07 17:59:40;;;;;;;5.88;2.13;;;;;;;;;;6319392;28;20043;-80
2022/04/07 18:02:43;;;;;;;6.28;3.00;;;;;;;;;;6317574;28;20051;-79
2022/04/07 18:05:49;;;;;;;25.40;5.55;;;;;;;;;;6319968;28;20044;-80
2022/04/07 18:08:52;;;;;;;16.20;5.57;;;;;;;;;;6319208;28;20405;-80
2022/04/07 18:11:56;;;;;;;9.40;2.88;;;;;;;;;;6317273;28;20040;-79
2022/04/07 18:14:59;;;;;;;8.70;2.50;;;;;;;;;;6318623;28;20036;-80
2022/04/07 18:18:03;;;;;;;7.30;2.65;;;;;;;;;;6316811;28;20405;-80
2022/04/07 18:21:06;;;;;;;5.93;2.83;;;;;;;;;;6319528;28;20062;-81
2022/04/07 18:24:11;;;;;;;7.20;1.92;;;;;;;;;;6320231;28;20040;-80